Time;durP1;ratioP1;P1;durP2;ratioP2;P2;SDS_P1;SDS_P2;PMS_P1;PMS_P2;Temp;Humidity;BMP_temperature;BMP_pressure;BME280_temperature;BME280_humidity;BME280_pressure;Samples;Min_cycle;Max_cycle;Signal;HPM_P1;HPM_P2
2022/05/13 00:02:08;;;;;;;11.68;3.05;;;;;;;9.58;76.08;101785.44;5095286;28;20035;-73
2022/05/13 00:04:34;;;;;;;7.85;2.90;;;;;;;9.58;76.49;101790.66;5092208;28;20123;-73
2022/05/13 00:07:00;;;;;;;15.73;2.97;;;;;;;9.49;77.02;101779.41;5095162;28;20124;-73
2022/05/13 00:09:56;;;;;;;16.88;3.72;;;;;;;9.54;77.06;101786.31;5094038;28;20035;-73
2022/05/13 00:12:11;;;;;;;12.50;3.35;;;;;;;9.51;77.22;101788.91;5093212;28;20104;-73
2022/05/13 00:14:38;;;;;;;11.32;3.38;;;;;;;9.45;77.54;101778.56;5091121;28;20031;-73
2022/05/13 00:17:04;;;;;;;12.75;3.92;;;;;;;9.46;77.83;101780.28;5092506;28;20035;-73
2022/05/13 00:19:30;;;;;;;11.05;3.35;;;;;;;9.43;78.30;101790.69;5094447;28;20036;-73
2022/05/13 00:21:55;;;;;;;10.43;3.80;;;;;;;9.43;78.39;101784.63;5094840;28;20038;-73
2022/05/13 00:24:20;;;;;;;9.98;3.42;;;;;;;9.40;78.36;101785.50;5090078;28;20524;-73
2022/05/13 00:26:46;;;;;;;15.38;3.75;;;;;;;9.36;78.81;101789.00;5094204;28;20032;-73
2022/05/13 00:29:11;;;;;;;15.68;4.15;;;;;;;9.34;78.79;101795.91;5093987;28;20024;-73
2022/05/13 00:31:36;;;;;;;8.82;3.70;;;;;;;9.34;79.11;101788.13;5093329;28;20059;-73
2022/05/13 00:34:02;;;;;;;10.55;4.00;;;;;;;9.33;79.29;101784.66;5091903;28;20032;-73
2022/05/13 00:36:27;;;;;;;14.38;4.20;;;;;;;9.32;79.23;101782.06;5094230;28;20030;-73
2022/05/13 00:38:52;;;;;;;11.45;4.28;;;;;;;9.26;79.48;101780.34;5092640;28;20035;-73
2022/05/13 00:41:18;;;;;;;16.25;4.53;;;;;;;9.18;79.75;101778.63;5093964;28;20070;-73
2022/05/13 00:43:47;;;;;;;8.20;4.05;;;;;;;9.16;80.64;101783.84;5094251;28;20099;-73
2022/05/13 00:46:13;;;;;;;12.63;4.63;;;;;;;9.17;80.53;101784.72;5089141;28;20051;-73
2022/05/13 00:48:39;;;;;;;16.95;4.80;;;;;;;9.11;80.44;101772.56;5093969;28;20472;-73
2022/05/13 00:51:06;;;;;;;12.68;4.55;;;;;;;9.12;80.71;101780.38;5094264;28;20077;-73
2022/05/13 00:53:36;;;;;;;11.85;3.80;;;;;;;9.13;80.46;101784.72;5091407;28;20097;-73
2022/05/13 00:56:02;;;;;;;13.40;4.22;;;;;;;9.13;80.15;101782.13;5087646;28;20093;-73
2022/05/13 00:58:29;;;;;;;17.38;3.78;;;;;;;9.09;79.88;101780.41;5080237;28;20411;-74
2022/05/13 01:00:54;;;;;;;8.55;3.53;;;;;;;9.13;79.37;101782.13;5072910;28;20028;-73
2022/05/13 01:03:21;;;;;;;8.90;3.03;;;;;;;9.13;78.13;101776.91;5073508;28;20400;-73
2022/05/13 01:05:53;;;;;;;8.55;2.78;;;;;;;9.15;77.44;101774.28;5086044;28;20070;-73
2022/05/13 01:08:20;;;;;;;14.38;3.03;;;;;;;9.14;76.91;101776.03;5093518;28;20023;-73
2022/05/13 01:10:46;;;;;;;9.43;2.80;;;;;;;9.08;77.29;101775.19;5093404;28;20027;-73
2022/05/13 01:13:15;;;;;;;7.90;2.80;;;;;;;9.03;77.45;101779.53;5092879;28;20035;-73
2022/05/13 01:15:42;;;;;;;8.32;2.95;;;;;;;9.04;77.35;101776.06;5092216;28;20028;-73
2022/05/13 01:18:08;;;;;;;7.47;2.63;;;;;;;8.99;76.72;101759.59;5093865;28;20028;-73
2022/05/13 01:20:46;;;;;;;9.98;2.50;;;;;;;9.07;76.56;101776.06;5092302;28;20044;-73
2022/05/13 01:23:21;;;;;;;11.20;2.35;;;;;;;9.03;76.40;101769.13;5090068;28;20126;-73
2022/05/13 01:25:51;;;;;;;8.50;2.95;;;;;;;9.02;76.15;101772.59;5089459;28;20118;-73
2022/05/13 01:28:29;;;;;;;6.90;2.17;;;;;;;9.01;76.10;101771.72;5092487;28;20024;-73
2022/05/13 01:30:58;;;;;;;5.05;2.08;;;;;;;9.00;76.22;101771.75;5084522;28;20031;-73
2022/05/13 01:33:24;;;;;;;7.22;2.30;;;;;;;8.99;76.19;101776.09;5072699;28;20021;-73
2022/05/13 01:35:53;;;;;;;7.90;2.03;;;;;;;9.01;76.15;101781.28;5085396;28;20347;-73
2022/05/13 01:38:21;;;;;;;6.93;2.30;;;;;;;8.98;75.80;101776.94;5093062;28;20024;-73
2022/05/13 01:40:46;;;;;;;6.70;2.15;;;;;;;8.97;76.48;101779.56;5092064;28;20497;-73
2022/05/13 01:43:11;;;;;;;12.48;2.40;;;;;;;9.00;76.26;101776.94;5092220;28;20028;-73
2022/05/13 01:45:38;;;;;;;11.45;2.38;;;;;;;9.06;75.68;101776.94;5083852;28;20036;-73
2022/05/13 01:48:04;;;;;;;8.18;2.15;;;;;;;9.18;75.69;101778.63;5086135;28;20073;-73
2022/05/13 01:50:30;;;;;;;7.60;1.90;;;;;;;9.30;74.89;101784.66;5092624;28;20081;-73
2022/05/13 01:52:55;;;;;;;5.03;1.70;;;;;;;9.41;74.86;101775.94;5092980;28;20032;-73
2022/05/13 01:55:22;;;;;;;6.63;2.08;;;;;;;9.44;74.55;101783.75;5088341;28;20032;-73
2022/05/13 01:57:48;;;;;;;8.93;1.95;;;;;;;9.44;74.85;101779.41;5092697;28;20016;-73
2022/05/13 02:00:14;;;;;;;10.45;2.08;;;;;;;9.44;74.84;101786.34;5092429;28;20510;-73
2022/05/13 02:05:24;;;;;;;8.10;2.42;;;;;;;9.48;74.22;101777.66;5091191;28;20089;-73
2022/05/13 02:07:50;;;;;;;6.75;2.10;;;;;;;9.53;74.51;101779.38;5091678;28;20028;-73
2022/05/13 02:10:15;;;;;;;7.22;1.90;;;;;;;9.50;74.23;101774.19;5091736;28;20065;-73
2022/05/13 02:12:40;;;;;;;10.73;1.90;;;;;;;9.55;73.97;101777.63;5092269;28;20391;-73
2022/05/13 02:15:07;;;;;;;10.80;3.00;;;;;;;9.59;74.49;101775.88;5091018;28;20073;-73
2022/05/13 02:17:32;;;;;;;7.43;2.03;;;;;;;9.59;74.66;101776.75;5091268;28;20479;-73
2022/05/13 02:19:57;;;;;;;9.70;2.25;;;;;;;9.58;74.79;101777.63;5092669;28;20056;-73
2022/05/13 02:22:22;;;;;;;5.82;2.30;;;;;;;9.60;74.83;101773.25;5092353;28;20028;-73
2022/05/13 02:24:48;;;;;;;10.65;2.13;;;;;;;9.59;75.34;101773.28;5088386;28;20059;-73
2022/05/13 02:27:13;;;;;;;10.95;2.50;;;;;;;9.52;75.30;101769.84;5092218;28;20430;-73
2022/05/13 02:29:38;;;;;;;7.63;2.42;;;;;;;9.50;75.13;101774.19;5092002;28;20060;-73
2022/05/13 02:32:05;;;;;;;8.02;2.25;;;;;;;9.47;75.33;101771.59;5091762;28;20028;-73
2022/05/13 02:34:30;;;;;;;6.80;2.17;;;;;;;9.54;75.82;101772.41;5090247;28;20031;-72
2022/05/13 02:36:56;;;;;;;9.65;2.33;;;;;;;9.57;75.60;101775.00;5090265;28;20040;-73
2022/05/13 02:39:21;;;;;;;10.15;2.95;;;;;;;9.57;75.60;101768.06;5091306;28;20498;-73
2022/05/13 02:41:46;;;;;;;10.20;2.60;;;;;;;9.57;75.72;101772.41;5091903;28;20034;-73
2022/05/13 02:44:11;;;;;;;6.55;2.40;;;;;;;9.57;75.82;101775.00;5085575;28;20033;-73
2022/05/13 02:46:37;;;;;;;7.93;2.10;;;;;;;9.64;75.35;101770.66;5091190;28;20103;-73
2022/05/13 02:49:03;;;;;;;8.25;2.90;;;;;;;9.66;76.07;101766.31;5092174;28;20361;-73
2022/05/13 02:51:29;;;;;;;6.38;2.55;;;;;;;9.71;74.53;101760.22;5090889;28;20087;-73
2022/05/13 02:53:54;;;;;;;9.27;2.90;;;;;;;9.75;75.80;101772.34;5090649;28;20020;-73
2022/05/13 02:56:21;;;;;;;11.13;3.08;;;;;;;9.78;76.30;101767.13;5088729;28;20119;-73
2022/05/13 02:58:46;;;;;;;9.95;2.60;;;;;;;9.80;75.41;101764.47;5090889;28;20044;-73
2022/05/13 03:01:14;;;;;;;9.13;2.50;;;;;;;9.78;76.32;101761.91;5092004;28;20024;-73
2022/05/13 03:03:43;;;;;;;9.10;2.85;;;;;;;9.81;76.13;101761.88;5091936;28;20024;-73
2022/05/13 03:06:08;;;;;;;8.95;3.03;;;;;;;9.83;76.37;101772.28;5088323;28;20024;-73
2022/05/13 03:08:34;;;;;;;10.43;3.17;;;;;;;9.84;76.46;101768.78;5091442;28;20020;-73
2022/05/13 03:11:04;;;;;;;8.45;2.67;;;;;;;9.87;76.98;101765.31;5091906;28;20024;-73
2022/05/13 03:13:30;;;;;;;15.43;3.45;;;;;;;9.87;77.25;101766.19;5090792;28;20046;-73
2022/05/13 03:16:02;;;;;;;16.25;4.28;;;;;;;9.83;76.79;101764.47;5090881;28;20032;-73
2022/05/13 03:18:27;;;;;;;7.65;3.15;;;;;;;9.93;77.29;101760.06;5091569;28;20464;-73
2022/05/13 03:20:52;;;;;;;12.15;4.63;;;;;;;9.94;77.15;101765.28;5090909;28;20024;-73
2022/05/13 03:23:17;;;;;;;11.85;3.72;;;;;;;9.95;77.74;101766.16;5091615;28;20024;-73
2022/05/13 03:25:42;;;;;;;13.88;3.97;;;;;;;9.97;77.47;101764.38;5087708;28;20044;-73
2022/05/13 03:28:10;;;;;;;10.90;3.20;;;;;;;9.95;77.52;101751.38;5091052;28;20024;-73
2022/05/13 03:30:36;;;;;;;10.25;3.58;;;;;;;9.90;77.56;101758.34;5091706;28;20024;-73
2022/05/13 03:33:01;;;;;;;9.77;3.08;;;;;;;9.87;77.97;101763.56;5091684;28;20170;-73
2022/05/13 03:35:27;;;;;;;15.48;4.15;;;;;;;9.77;78.14;101759.28;5089408;28;20077;-73
2022/05/13 03:37:52;;;;;;;12.25;4.03;;;;;;;9.66;78.71;101759.34;5091688;28;20029;-73
2022/05/13 03:40:18;;;;;;;12.70;3.90;;;;;;;9.56;78.72;101760.28;5091418;28;20456;-73
2022/05/13 03:42:44;;;;;;;13.68;4.00;;;;;;;9.55;79.22;101762.03;5090474;28;20032;-73
2022/05/13 03:45:11;;;;;;;11.45;4.03;;;;;;;9.51;79.38;101762.88;5088357;28;20111;-73
2022/05/13 03:47:37;;;;;;;13.32;3.63;;;;;;;9.49;79.49;101763.78;5090828;28;20021;-73
2022/05/13 03:50:04;;;;;;;13.73;3.72;;;;;;;9.45;79.73;101757.72;5091575;28;20468;-73
2022/05/13 03:52:30;;;;;;;14.82;4.03;;;;;;;9.40;80.02;101759.47;5091079;28;20043;-73
2022/05/13 03:54:55;;;;;;;11.27;4.47;;;;;;;9.37;80.59;101760.34;5069116;28;20024;-73
2022/05/13 03:57:21;;;;;;;13.30;4.38;;;;;;;9.25;81.04;101754.31;5090181;28;20032;-73
2022/05/13 03:59:46;;;;;;;12.43;3.83;;;;;;;9.25;81.04;101759.53;5091080;28;20112;-73
2022/05/13 04:02:11;;;;;;;9.32;4.13;;;;;;;9.17;81.54;101767.34;5090604;28;20028;-73
2022/05/13 04:10:10;;;;;;;8.35;3.72;;;;;;;9.16;82.28;101764.78;5046846;28;20403;-73
2022/05/13 04:18:03;;;;;;;;;;;;;;;9.20;79.41;101766.50;5095592;28;20043;-73
2022/05/13 04:20:29;;;;;;;11.73;3.83;;;;;;;9.17;82.36;101763.91;5094651;28;19920;-73
2022/05/13 04:22:54;;;;;;;14.63;4.40;;;;;;;9.17;82.33;101766.50;5093935;28;20905;-73
2022/05/13 04:25:20;;;;;;;11.88;4.63;;;;;;;9.19;82.73;101764.72;5091206;28;20036;-73
2022/05/13 04:27:45;;;;;;;15.40;4.53;;;;;;;9.19;82.85;101764.72;5086273;28;20028;-73
2022/05/13 04:30:12;;;;;;;11.35;4.20;;;;;;;9.20;83.37;101772.56;5090165;28;20020;-73
2022/05/13 04:32:37;;;;;;;13.82;4.22;;;;;;;9.24;82.97;101770.81;5093211;28;20036;-73
2022/05/13 04:35:03;;;;;;;16.00;4.88;;;;;;;9.28;82.94;101769.91;5093271;28;20028;-73
2022/05/13 04:37:28;;;;;;;16.35;4.82;;;;;;;9.27;82.93;101765.59;5093646;28;20028;-73
2022/05/13 04:39:53;;;;;;;11.68;4.35;;;;;;;9.33;83.04;101774.25;5094226;28;20349;-73
2022/05/13 04:45:05;;;;;;;14.45;4.43;;;;;;;9.38;82.62;101787.22;5086687;28;20039;-73
2022/05/13 04:50:14;;;;;;;;;;;;;;;9.50;81.13;101791.53;5093878;28;20092;-73
2022/05/13 04:52:39;;;;;;;14.27;4.75;;;;;;;9.70;82.74;101783.63;5093197;28;20010;-73
2022/05/13 04:55:05;;;;;;;13.63;4.43;;;;;;;9.82;81.55;101796.59;5094209;28;20054;-73
2022/05/13 04:57:30;;;;;;;15.93;4.50;;;;;;;9.95;82.05;101793.06;5091456;28;20043;-73
2022/05/13 04:59:55;;;;;;;14.77;4.75;;;;;;;10.04;81.14;101795.63;5093192;28;20041;-73
2022/05/13 05:02:21;;;;;;;17.15;4.82;;;;;;;10.13;81.09;101799.88;5093917;28;20034;-73
2022/05/13 05:04:46;;;;;;;12.20;4.07;;;;;;;10.22;80.43;101796.38;5087528;28;20377;-73
2022/05/13 05:07:11;;;;;;;14.15;5.03;;;;;;;10.27;80.51;101802.47;5079838;28;20020;-74
2022/05/13 05:09:38;;;;;;;12.27;4.20;;;;;;;10.33;79.79;101807.59;5091601;28;20032;-74
2022/05/13 05:12:04;;;;;;;15.85;4.65;;;;;;;10.39;79.85;101804.09;5092919;28;20055;-74
2022/05/13 05:14:29;;;;;;;11.90;3.97;;;;;;;10.45;79.71;101807.50;5092204;28;20476;-74
2022/05/13 05:16:54;;;;;;;13.27;4.20;;;;;;;10.49;80.16;101811.81;5092764;28;20032;-74
2022/05/13 05:19:20;;;;;;;17.17;4.60;;;;;;;10.50;79.66;101818.78;5091549;28;20044;-74
2022/05/13 05:21:45;;;;;;;12.57;4.55;;;;;;;10.56;79.47;101810.03;5093393;28;20048;-74
2022/05/13 05:24:10;;;;;;;10.88;4.03;;;;;;;10.60;79.69;101819.59;5089925;28;20464;-75
2022/05/13 05:26:36;;;;;;;11.45;4.40;;;;;;;10.71;79.44;101825.56;5091131;28;20107;-74
2022/05/13 05:29:01;;;;;;;18.90;4.65;;;;;;;10.76;79.45;101823.78;5089090;28;20024;-74
2022/05/13 05:31:27;;;;;;;11.50;4.70;;;;;;;10.86;77.85;101829.81;5093075;28;20052;-73
2022/05/13 05:33:52;;;;;;;12.43;4.82;;;;;;;10.93;77.50;101836.69;5082231;28;20024;-74
2022/05/13 05:36:17;;;;;;;11.75;4.80;;;;;;;10.96;77.01;101839.28;5079123;28;20024;-74
2022/05/13 05:38:42;;;;;;;12.32;4.20;;;;;;;10.98;77.72;101850.53;5072717;28;20418;-74
2022/05/13 05:41:08;;;;;;;9.70;4.18;;;;;;;11.07;77.73;101846.13;5072229;28;20032;-74
2022/05/13 05:43:35;;;;;;;10.43;4.60;;;;;;;11.18;77.06;101849.47;5072257;28;20506;-74
2022/05/13 05:46:01;;;;;;;15.02;4.95;;;;;;;11.24;77.16;101839.84;5073091;28;20020;-74
2022/05/13 05:48:27;;;;;;;18.35;4.63;;;;;;;11.32;76.86;101847.63;5071791;28;20029;-74
2022/05/13 05:50:55;;;;;;;11.40;4.15;;;;;;;11.36;75.59;101856.28;5072600;28;20048;-74
2022/05/13 05:58:50;;;;;;;15.80;4.35;;;;;;;11.60;74.73;101860.34;5072244;28;20055;-74
2022/05/13 06:01:16;;;;;;;11.07;4.55;;;;;;;11.64;75.80;101867.28;5071605;28;20439;-74
2022/05/13 06:03:41;;;;;;;9.57;4.22;;;;;;;11.72;75.48;101875.91;5072275;28;20025;-74
2022/05/13 06:06:09;;;;;;;11.93;4.18;;;;;;;11.76;75.23;101866.28;5072633;28;20024;-74
2022/05/13 06:08:35;;;;;;;14.10;4.15;;;;;;;11.97;75.52;101868.66;5071369;28;20024;-74
2022/05/13 06:11:00;;;;;;;10.70;4.90;;;;;;;12.08;74.39;101868.50;5072804;28;20044;-74
2022/05/13 06:13:25;;;;;;;14.75;5.03;;;;;;;12.22;74.76;101876.16;5071970;28;20044;-74
2022/05/13 06:15:51;;;;;;;12.35;4.43;;;;;;;12.35;73.98;101878.56;5071515;28;20032;-74
2022/05/13 06:18:16;;;;;;;16.50;4.60;;;;;;;12.48;74.28;101874.03;5072059;28;20025;-74
2022/05/13 06:20:41;;;;;;;15.38;4.35;;;;;;;12.65;73.17;101877.28;5072015;28;20111;-74
2022/05/13 06:23:07;;;;;;;12.52;4.88;;;;;;;12.84;72.87;101874.34;5071387;28;20040;-74
2022/05/13 06:25:32;;;;;;;11.60;4.35;;;;;;;12.98;72.46;101880.25;5071839;28;20095;-74
2022/05/13 06:28:00;;;;;;;16.08;4.72;;;;;;;13.13;72.04;101879.09;5071970;28;20057;-74
2022/05/13 06:30:29;;;;;;;16.08;4.82;;;;;;;13.26;71.38;101883.25;5071147;28;20404;-74
2022/05/13 06:32:55;;;;;;;12.15;5.00;;;;;;;13.20;71.23;101874.59;5071802;28;20036;-74
2022/05/13 06:35:22;;;;;;;16.10;4.95;;;;;;;13.23;71.99;101890.28;5071760;28;20033;-74
2022/05/13 06:37:48;;;;;;;10.98;4.35;;;;;;;13.34;71.40;101889.22;5071274;28;20052;-74
2022/05/13 06:40:13;;;;;;;20.00;5.55;;;;;;;13.40;70.46;101892.59;5071942;28;20052;-74
2022/05/13 06:42:38;;;;;;;16.45;5.03;;;;;;;13.58;71.49;101892.28;5071789;28;20025;-74
2022/05/13 06:45:05;;;;;;;13.23;4.63;;;;;;;13.77;71.47;101892.78;5071347;28;20080;-74
2022/05/13 06:47:30;;;;;;;14.50;5.07;;;;;;;13.98;71.12;101891.47;5071346;28;20031;-74
2022/05/13 06:50:00;;;;;;;20.70;5.22;;;;;;;14.03;69.97;101889.63;5072046;28;20396;-74
2022/05/13 06:52:25;;;;;;;19.23;5.47;;;;;;;13.96;69.55;101893.25;5071251;28;20036;-74
2022/05/13 06:54:50;;;;;;;10.90;5.25;;;;;;;13.96;69.64;101898.50;5071734;28;20383;-74
2022/05/13 06:57:16;;;;;;;15.02;5.57;;;;;;;14.04;69.17;101914.94;5071869;28;20472;-74
2022/05/13 06:59:41;;;;;;;15.57;5.05;;;;;;;14.03;69.73;101894.88;5070699;28;20045;-74
2022/05/13 07:02:07;;;;;;;12.65;4.82;;;;;;;14.14;68.96;101905.13;5071895;28;20035;-74
2022/05/13 07:04:32;;;;;;;18.40;5.30;;;;;;;14.22;68.97;101905.81;5070445;28;20016;-74
2022/05/13 07:06:59;;;;;;;12.57;5.03;;;;;;;14.30;69.79;101903.91;5072215;28;20025;-74
2022/05/13 07:09:24;;;;;;;15.90;5.20;;;;;;;14.42;68.66;101908.00;5071608;28;20036;-74
2022/05/13 07:11:50;;;;;;;18.08;5.55;;;;;;;14.46;68.48;101900.03;5070858;28;20384;-74
2022/05/13 07:14:16;;;;;;;16.15;5.80;;;;;;;14.61;68.25;101911.09;5071299;28;20158;-74
2022/05/13 07:16:41;;;;;;;19.77;6.00;;;;;;;14.67;69.30;101903.09;5071482;28;20032;-74
2022/05/13 07:19:07;;;;;;;15.70;6.35;;;;;;;14.64;68.21;101898.75;5070835;28;20070;-74
2022/05/13 07:21:32;;;;;;;15.05;6.40;;;;;;;14.70;67.42;101903.88;5071306;28;20107;-74
2022/05/13 07:23:57;;;;;;;15.15;5.80;;;;;;;14.62;66.46;101905.81;5071798;28;20107;-74
2022/05/13 07:26:23;;;;;;;16.52;6.82;;;;;;;14.67;66.92;101913.59;5070602;28;20031;-74
2022/05/13 07:28:48;;;;;;;15.13;6.82;;;;;;;14.73;66.95;101903.81;5071423;28;20427;-74
2022/05/13 07:31:14;;;;;;;14.98;6.75;;;;;;;14.70;67.14;101901.25;5071452;28;20107;-74
2022/05/13 07:33:39;;;;;;;16.50;6.72;;;;;;;14.74;67.20;101908.13;5070522;28;20052;-74
2022/05/13 07:36:04;;;;;;;16.73;6.70;;;;;;;14.87;68.19;101906.09;5071577;28;20016;-74
2022/05/13 07:38:31;;;;;;;13.80;7.18;;;;;;;14.98;66.66;101911.09;5072117;28;20060;-74
2022/05/13 07:41:16;;;;;;;17.80;6.78;;;;;;;15.03;64.73;101913.59;5074744;28;20024;-74
2022/05/13 07:43:42;;;;;;;15.93;6.80;;;;;;;14.99;64.48;101913.66;5074964;28;20438;-74
2022/05/13 07:46:08;;;;;;;15.40;7.10;;;;;;;14.94;65.43;101922.56;5075192;28;20032;-74
2022/05/13 07:48:33;;;;;;;15.80;6.43;;;;;;;15.05;66.66;101911.81;5073700;28;20039;-74
2022/05/13 07:50:59;;;;;;;13.70;6.47;;;;;;;15.30;63.70;101920.75;5075202;28;20468;-74
2022/05/13 07:53:24;;;;;;;13.85;6.82;;;;;;;15.31;63.30;101926.91;5074807;28;20033;-74
2022/05/13 07:55:49;;;;;;;20.35;6.78;;;;;;;15.23;64.34;101924.44;5074133;28;20605;-74
2022/05/13 07:58:16;;;;;;;15.23;6.32;;;;;;;15.29;64.42;101926.06;5074548;28;20094;-75
2022/05/13 08:00:43;;;;;;;13.88;6.45;;;;;;;15.47;64.35;101925.59;5073905;28;20085;-74
2022/05/13 08:03:12;;;;;;;12.18;5.55;;;;;;;15.73;63.79;101926.66;5074567;28;20044;-74
2022/05/13 08:05:43;;;;;;;11.05;6.28;;;;;;;15.67;61.97;101922.47;5074749;28;20028;-74
2022/05/13 08:08:11;;;;;;;9.85;6.20;;;;;;;15.79;62.25;101934.38;5074278;28;20111;-74
2022/05/13 08:10:39;;;;;;;15.30;6.07;;;;;;;15.73;61.21;101931.91;5074529;28;20337;-74
2022/05/13 08:13:05;;;;;;;16.73;7.35;;;;;;;15.76;60.13;101937.97;5074615;28;20036;-74
2022/05/13 08:15:30;;;;;;;14.88;5.60;;;;;;;15.93;62.00;101927.00;5073408;28;20032;-74
2022/05/13 08:17:56;;;;;;;14.73;6.13;;;;;;;16.03;59.90;101936.34;5074838;28;20024;-74
2022/05/13 08:20:22;;;;;;;15.32;6.00;;;;;;;16.09;61.04;101936.16;5074503;28;20461;-74
2022/05/13 08:22:47;;;;;;;11.52;5.93;;;;;;;16.11;61.87;101939.59;5073761;28;20025;-74
2022/05/13 08:25:13;;;;;;;13.85;6.53;;;;;;;16.04;60.75;101939.81;5074350;28;20021;-74
2022/05/13 08:27:39;;;;;;;12.20;5.93;;;;;;;16.07;60.97;101947.63;5074213;28;20050;-75
2022/05/13 08:30:05;;;;;;;17.77;6.15;;;;;;;16.01;59.78;101950.44;5071345;28;20020;-75
2022/05/13 08:32:31;;;;;;;13.60;5.70;;;;;;;16.07;60.78;101951.13;5080767;28;20514;-74
2022/05/13 08:34:57;;;;;;;16.92;6.18;;;;;;;15.98;59.21;101947.88;5080747;28;20024;-73
2022/05/13 08:37:22;;;;;;;11.00;5.05;;;;;;;15.87;60.36;101945.56;5076356;28;20039;-73
2022/05/13 08:39:48;;;;;;;14.70;5.55;;;;;;;16.24;61.57;101931.34;5073158;28;20042;-72
2022/05/13 08:42:22;;;;;;;13.10;5.18;;;;;;;16.59;58.15;101948.69;5085389;28;20085;-73
2022/05/13 08:44:49;;;;;;;9.30;4.90;;;;;;;16.38;56.41;101937.03;5071939;28;20494;-73
2022/05/13 08:47:37;;;;;;;10.23;5.00;;;;;;;16.31;59.05;101951.28;5073725;28;20111;-74
2022/05/13 08:50:08;;;;;;;13.13;5.22;;;;;;;16.36;56.44;101936.25;5072861;28;20063;-73
2022/05/13 08:53:07;;;;;;;10.60;4.43;;;;;;;16.68;58.32;101937.88;5073397;28;20037;-72
2022/05/13 08:55:58;;;;;;;11.25;4.30;;;;;;;17.01;56.18;101950.91;5076185;28;20053;-73
2022/05/13 08:58:25;;;;;;;12.65;4.22;;;;;;;17.24;54.64;101942.25;5072548;28;20111;-73
2022/05/13 09:00:54;;;;;;;12.88;4.28;;;;;;;17.44;53.29;101954.75;5075208;28;20044;-73
2022/05/13 09:03:28;;;;;;;12.57;4.57;;;;;;;17.49;53.06;101940.50;5093547;28;20063;-74
2022/05/13 09:06:02;;;;;;;11.90;4.43;;;;;;;17.44;52.93;101950.31;5077006;28;20473;-74
2022/05/13 09:08:27;;;;;;;11.95;4.40;;;;;;;17.27;54.13;101952.69;5072722;28;20025;-73
2022/05/13 09:10:58;;;;;;;6.85;3.25;;;;;;;17.19;54.27;101947.66;5085373;28;20119;-73
2022/05/13 09:13:35;;;;;;;7.95;3.60;;;;;;;17.21;52.19;101948.47;5093353;28;20024;-72
2022/05/13 09:16:05;;;;;;;7.53;3.65;;;;;;;17.29;51.75;101950.84;5093823;28;20020;-73
2022/05/13 09:18:37;;;;;;;7.50;3.28;;;;;;;17.38;53.93;101940.00;5092578;28;20145;-73
2022/05/13 09:21:09;;;;;;;11.00;4.15;;;;;;;17.36;52.14;101952.34;5093580;28;20020;-73
2022/05/13 09:23:35;;;;;;;7.70;2.97;;;;;;;17.45;54.47;101951.19;5093385;28;20043;-72
2022/05/13 09:26:13;;;;;;;10.50;3.90;;;;;;;17.56;52.46;101956.97;5092853;28;20400;-72
2022/05/13 09:29:12;;;;;;;8.00;3.40;;;;;;;17.57;53.21;101940.22;5093076;28;20495;-73
2022/05/13 09:31:43;;;;;;;8.18;3.63;;;;;;;17.37;51.35;101956.72;5093260;28;20106;-73
2022/05/13 09:34:29;;;;;;;11.02;3.17;;;;;;;17.44;51.25;101955.59;5092793;28;20024;-73
2022/05/13 09:37:21;;;;;;;8.43;2.95;;;;;;;17.95;52.01;101957.34;5093302;28;20031;-73
2022/05/13 09:39:50;;;;;;;15.18;3.83;;;;;;;17.98;49.68;101953.72;5092270;28;20406;-72
2022/05/13 09:42:33;;;;;;;9.27;3.67;;;;;;;18.06;51.27;101953.44;5090457;28;20024;-73
2022/05/13 09:45:22;;;;;;;6.95;2.83;;;;;;;18.41;51.22;101957.38;5076871;28;20058;-74
2022/05/13 09:48:12;;;;;;;8.80;2.90;;;;;;;18.66;50.39;101949.34;5088783;28;20024;-73
2022/05/13 09:50:48;;;;;;;8.75;3.00;;;;;;;18.90;46.72;101955.47;5092933;28;20035;-74
2022/05/13 09:53:23;;;;;;;10.82;2.80;;;;;;;18.85;46.16;101960.94;5091942;28;20037;-74
2022/05/13 09:55:50;;;;;;;10.70;3.10;;;;;;;18.74;46.75;101971.09;5092849;28;20111;-74
2022/05/13 09:58:49;;;;;;;8.95;2.88;;;;;;;18.72;48.89;101970.28;5085853;28;20044;-73
2022/05/13 10:01:22;;;;;;;10.68;2.65;;;;;;;18.80;48.90;101967.31;5055328;28;20112;-72
2022/05/13 10:04:11;;;;;;;7.67;2.50;;;;;;;19.09;48.13;101960.84;5081678;28;20070;-73
2022/05/13 10:06:37;;;;;;;6.72;2.70;;;;;;;19.06;47.26;101959.19;5080628;28;20047;-72
2022/05/13 10:14:41;;;;;;;11.00;2.33;;;;;;;18.57;45.86;101969.06;5091636;28;20038;-73
2022/05/13 10:17:16;;;;;;;5.40;2.10;;;;;;;18.18;47.60;101979.34;5087696;28;20756;-73
2022/05/13 10:19:47;;;;;;;9.90;2.47;;;;;;;17.88;48.60;101976.06;5079869;28;20035;-72
2022/05/13 10:22:26;;;;;;;8.05;2.47;;;;;;;17.80;49.33;101979.00;5073531;28;20473;-72
2022/05/13 10:25:00;;;;;;;10.77;3.22;;;;;;;17.75;49.80;101980.88;5092457;28;20485;-73
2022/05/13 10:27:30;;;;;;;6.57;2.50;;;;;;;17.78;47.28;101971.13;5092327;28;20035;-73
2022/05/13 10:30:05;;;;;;;9.57;2.80;;;;;;;18.05;46.57;101967.53;5091756;28;20027;-73
2022/05/13 10:32:45;;;;;;;7.20;2.80;;;;;;;18.25;47.61;101970.31;5091707;28;20032;-73
2022/05/13 10:35:17;;;;;;;8.52;2.80;;;;;;;18.32;47.05;101971.81;5092005;28;20039;-72
2022/05/13 10:37:58;;;;;;;9.02;2.40;;;;;;;18.49;48.32;101969.38;5088629;28;20024;-72
2022/05/13 10:40:29;;;;;;;7.05;2.60;;;;;;;18.57;45.53;101976.13;5092079;28;20034;-72
2022/05/13 10:43:04;;;;;;;7.43;2.30;;;;;;;18.78;45.08;101970.03;5077365;28;20047;-72
2022/05/13 10:45:31;;;;;;;6.30;2.30;;;;;;;19.10;44.59;101959.97;5079578;28;20039;-72
2022/05/13 10:48:15;;;;;;;5.82;2.60;;;;;;;19.17;44.09;101964.06;5091348;28;20026;-72
2022/05/13 10:50:56;;;;;;;5.95;2.40;;;;;;;19.02;45.66;101969.97;5072479;28;20027;-72
2022/05/13 10:53:52;;;;;;;7.22;2.55;;;;;;;18.90;45.93;101966.91;5080539;28;20054;-72
2022/05/13 10:56:47;;;;;;;8.00;2.45;;;;;;;18.87;44.65;101969.69;5075764;28;20095;-73
2022/05/13 10:59:33;;;;;;;4.88;2.72;;;;;;;19.20;45.85;101971.00;5053014;28;20036;-74
2022/05/13 11:02:29;;;;;;;10.48;2.88;;;;;;;19.18;46.12;101965.78;5076047;28;20040;-73
2022/05/13 11:05:00;;;;;;;7.25;2.50;;;;;;;19.40;43.59;101963.94;5070843;28;20056;-72
2022/05/13 11:07:33;;;;;;;6.07;2.10;;;;;;;20.11;42.92;101961.72;5072001;28;20091;-73
2022/05/13 11:10:23;;;;;;;11.30;2.97;;;;;;;20.26;43.65;101961.94;5071951;28;20054;-73
2022/05/13 11:13:26;;;;;;;5.53;2.40;;;;;;;20.53;44.19;101962.47;5072176;28;20028;-73
2022/05/13 11:16:05;;;;;;;5.85;2.03;;;;;;;20.98;43.27;101967.31;5064483;28;20369;-73
2022/05/13 11:18:48;;;;;;;9.35;2.90;;;;;;;21.57;39.72;101959.09;5074402;28;20413;-73
2022/05/13 11:21:21;;;;;;;;;;;;;;;21.78;42.04;101970.38;5075235;28;20478;-73
2022/05/13 11:26:58;;;;;;;7.43;2.67;;;;;;;20.38;42.18;101969.31;5074911;28;20053;-74
2022/05/13 11:29:32;;;;;;;7.38;2.95;;;;;;;20.14;43.21;101976.59;5073090;28;20377;-73
2022/05/13 11:32:20;;;;;;;12.98;3.42;;;;;;;19.77;43.71;101988.81;5081337;28;20438;-74
2022/05/13 11:35:08;;;;;;;8.13;2.47;;;;;;;19.69;44.67;101971.59;5088574;28;20028;-73
2022/05/13 11:37:38;;;;;;;35.63;5.13;;;;;;;20.03;44.20;101966.50;5091760;28;20029;-74
2022/05/13 11:40:06;;;;;;;19.77;3.55;;;;;;;20.65;42.26;101964.53;5080402;28;20025;-73
2022/05/13 11:43:21;;;;;;;7.75;2.83;;;;;;;20.50;42.39;101960.81;5087522;28;20024;-73
2022/05/13 11:46:01;;;;;;;;;;;;;;;20.17;42.52;101968.50;5079360;28;20051;-73
2022/05/13 11:48:30;;;;;;;9.40;3.10;;;;;;;19.58;43.38;101966.72;5084966;28;19970;-73
2022/05/13 11:51:05;;;;;;;8.98;3.35;;;;;;;19.87;42.71;101962.81;5078173;28;20379;-73
2022/05/13 11:53:49;;;;;;;10.35;2.90;;;;;;;20.58;43.12;101960.47;5081869;28;20036;-73
2022/05/13 11:56:29;;;;;;;9.70;3.88;;;;;;;20.64;42.50;101976.06;5089317;28;20478;-73
2022/05/13 11:58:57;;;;;;;8.82;3.08;;;;;;;20.40;40.91;101982.47;5088274;28;20056;-73
2022/05/13 12:01:34;;;;;;;15.13;3.78;;;;;;;20.46;41.16;101977.75;5074930;28;20499;-73
2022/05/13 12:04:11;;;;;;;9.30;4.30;;;;;;;20.63;40.85;101971.69;5074398;28;20115;-73
2022/05/13 12:06:55;;;;;;;9.52;4.93;;;;;;;20.45;41.29;101965.44;5082849;28;20036;-73
2022/05/13 12:09:26;;;;;;;;;;;;;;;20.46;42.43;101977.75;5074519;28;20416;-73